Time;durP1;ratioP1;P1;durP2;ratioP2;P2;SDS_P1;SDS_P2;PMS_P1;PMS_P2;Temp;Humidity;BMP_temperature;BMP_pressure;BME280_temperature;BME280_humidity;BME280_pressure;Samples;Min_cycle;Max_cycle;Signal;HPM_P1;HPM_P2
2022/08/30 00:01:28;;;;;;;11.43;2.42;;;;;;;;;;5005778;28;20050;-65
2022/08/30 00:03:55;;;;;;;10.45;2.35;;;;;;;;;;5001002;28;20045;-66
2022/08/30 00:06:22;;;;;;;12.27;2.83;;;;;;;;;;5008841;28;20058;-68
2022/08/30 00:08:49;;;;;;;11.98;2.42;;;;;;;;;;4994167;28;20465;-68
2022/08/30 00:11:20;;;;;;;9.48;2.33;;;;;;;;;;5007835;28;20046;-67
2022/08/30 00:13:48;;;;;;;12.50;2.58;;;;;;;;;;4988806;28;20053;-65
2022/08/30 00:16:15;;;;;;;13.40;2.60;;;;;;;;;;5000909;28;20128;-67
2022/08/30 00:18:41;;;;;;;12.35;2.50;;;;;;;;;;4999908;28;20050;-64
2022/08/30 00:21:08;;;;;;;13.02;2.70;;;;;;;;;;5004649;28;20378;-65
2022/08/30 00:23:35;;;;;;;12.18;2.45;;;;;;;;;;5002759;28;20052;-66
2022/08/30 00:26:02;;;;;;;10.10;2.20;;;;;;;;;;4998778;28;20457;-68
2022/08/30 00:28:29;;;;;;;10.25;2.45;;;;;;;;;;5004221;28;20053;-68
2022/08/30 00:30:55;;;;;;;8.95;2.30;;;;;;;;;;5006028;28;20103;-65
2022/08/30 00:33:21;;;;;;;11.75;2.35;;;;;;;;;;5007916;28;20062;-65
2022/08/30 00:35:48;;;;;;;16.20;2.78;;;;;;;;;;5001826;28;20552;-65
2022/08/30 00:38:14;;;;;;;9.98;2.70;;;;;;;;;;5001826;28;20101;-66
2022/08/30 00:40:43;;;;;;;10.57;2.22;;;;;;;;;;5003907;28;20053;-66
2022/08/30 00:43:15;;;;;;;17.25;3.25;;;;;;;;;;5002972;28;20042;-66
2022/08/30 00:45:41;;;;;;;10.80;2.20;;;;;;;;;;5002721;28;20066;-64
2022/08/30 00:48:07;;;;;;;10.00;2.40;;;;;;;;;;5005549;28;20038;-66
2022/08/30 00:50:41;;;;;;;11.13;2.55;;;;;;;;;;5001210;28;20108;-67
2022/08/30 00:53:12;;;;;;;8.77;2.50;;;;;;;;;;4998300;28;20137;-66
2022/08/30 00:55:40;;;;;;;10.30;2.08;;;;;;;;;;5006950;28;20045;-66
2022/08/30 00:58:09;;;;;;;9.32;2.50;;;;;;;;;;5006610;28;20495;-64
2022/08/30 01:00:35;;;;;;;13.38;2.33;;;;;;;;;;5003730;28;20418;-66
2022/08/30 01:03:01;;;;;;;13.48;2.42;;;;;;;;;;5001568;28;20046;-66
2022/08/30 01:05:27;;;;;;;15.00;2.70;;;;;;;;;;5008924;28;20466;-66
2022/08/30 01:07:53;;;;;;;13.35;2.83;;;;;;;;;;5004747;28;20053;-65
2022/08/30 01:10:19;;;;;;;13.45;2.75;;;;;;;;;;5008152;28;20050;-67
2022/08/30 01:12:46;;;;;;;10.73;2.53;;;;;;;;;;5001440;28;20049;-68
2022/08/30 01:15:13;;;;;;;14.40;2.30;;;;;;;;;;5004656;28;20135;-66
2022/08/30 01:17:43;;;;;;;10.23;2.38;;;;;;;;;;5007806;28;20053;-64
2022/08/30 01:20:16;;;;;;;14.00;2.78;;;;;;;;;;5002849;28;20048;-64
2022/08/30 01:22:48;;;;;;;13.05;2.60;;;;;;;;;;5009982;28;20054;-65
2022/08/30 01:25:20;;;;;;;10.25;2.97;;;;;;;;;;4994269;28;20451;-67
2022/08/30 01:27:53;;;;;;;13.85;2.95;;;;;;;;;;5004925;28;20509;-66
2022/08/30 01:30:22;;;;;;;10.45;2.42;;;;;;;;;;5010386;28;20430;-66
2022/08/30 01:32:50;;;;;;;15.38;2.50;;;;;;;;;;5007014;28;20072;-66
2022/08/30 01:35:17;;;;;;;15.73;2.85;;;;;;;;;;5007710;28;20042;-64
2022/08/30 01:37:44;;;;;;;10.93;2.75;;;;;;;;;;5007282;28;20464;-66
2022/08/30 01:40:12;;;;;;;10.68;2.50;;;;;;;;;;5011918;28;20111;-68
2022/08/30 01:42:38;;;;;;;14.20;3.10;;;;;;;;;;5010314;28;20065;-64
2022/08/30 01:45:05;;;;;;;13.82;2.70;;;;;;;;;;5009059;28;20057;-65
2022/08/30 01:47:31;;;;;;;9.93;2.95;;;;;;;;;;5007594;28;20050;-64
2022/08/30 01:49:57;;;;;;;9.85;2.45;;;;;;;;;;5004228;28;20056;-66
2022/08/30 01:52:25;;;;;;;12.48;2.92;;;;;;;;;;5008312;28;20052;-65
2022/08/30 01:54:52;;;;;;;10.98;3.00;;;;;;;;;;5008700;28;20046;-72
2022/08/30 01:57:21;;;;;;;9.70;3.10;;;;;;;;;;5006776;28;20050;-63
2022/08/30 01:59:49;;;;;;;9.55;2.63;;;;;;;;;;5009529;28;20057;-64
2022/08/30 02:02:18;;;;;;;12.85;2.83;;;;;;;;;;5004803;28;20419;-65
2022/08/30 02:04:44;;;;;;;15.52;3.10;;;;;;;;;;5012515;28;20070;-63
2022/08/30 02:07:10;;;;;;;12.82;2.75;;;;;;;;;;5008067;28;20440;-63
2022/08/30 02:09:36;;;;;;;8.65;2.80;;;;;;;;;;5009901;28;20049;-65
2022/08/30 02:12:06;;;;;;;9.95;3.05;;;;;;;;;;5010423;28;20128;-63
2022/08/30 02:14:36;;;;;;;11.82;2.90;;;;;;;;;;5009349;28;20423;-64
2022/08/30 02:17:05;;;;;;;11.95;3.35;;;;;;;;;;5004559;28;20134;-65
2022/08/30 02:19:31;;;;;;;11.10;2.85;;;;;;;;;;4997416;28;20053;-63
2022/08/30 02:21:56;;;;;;;10.75;2.85;;;;;;;;;;5007060;28;20069;-67
2022/08/30 02:24:22;;;;;;;17.35;3.03;;;;;;;;;;5007096;28;20057;-65
2022/08/30 02:26:48;;;;;;;6.13;2.78;;;;;;;;;;5004680;28;20129;-65
2022/08/30 02:29:14;;;;;;;11.48;3.20;;;;;;;;;;5008214;28;20042;-66
2022/08/30 02:31:41;;;;;;;11.60;2.92;;;;;;;;;;5007400;28;20058;-63
2022/08/30 02:34:06;;;;;;;10.07;2.70;;;;;;;;;;5003799;28;20052;-61
2022/08/30 02:36:32;;;;;;;11.77;3.13;;;;;;;;;;5001184;28;20099;-63
2022/08/30 02:38:59;;;;;;;11.57;2.83;;;;;;;;;;5002996;28;20046;-64
2022/08/30 02:41:24;;;;;;;11.18;2.70;;;;;;;;;;5009345;28;20050;-64
2022/08/30 02:43:51;;;;;;;9.90;2.80;;;;;;;;;;5010476;28;20056;-63
2022/08/30 02:46:17;;;;;;;15.15;3.35;;;;;;;;;;4984332;28;20109;-65
2022/08/30 02:48:43;;;;;;;17.85;3.05;;;;;;;;;;4990980;28;20093;-67
2022/08/30 02:51:11;;;;;;;10.77;3.00;;;;;;;;;;5008974;28;20534;-66
2022/08/30 02:53:39;;;;;;;10.77;3.15;;;;;;;;;;5004817;28;20456;-64
2022/08/30 02:56:05;;;;;;;15.60;2.90;;;;;;;;;;5013613;28;20042;-64
2022/08/30 02:58:31;;;;;;;8.27;2.88;;;;;;;;;;5007000;28;20503;-64
2022/08/30 03:00:57;;;;;;;11.00;2.53;;;;;;;;;;5008253;28;20053;-64
2022/08/30 03:03:23;;;;;;;10.07;2.92;;;;;;;;;;5008330;28;20069;-66
2022/08/30 03:05:49;;;;;;;7.68;2.65;;;;;;;;;;5015912;28;20155;-64
2022/08/30 03:08:15;;;;;;;7.90;3.00;;;;;;;;;;5005650;28;20089;-67
2022/08/30 03:10:41;;;;;;;6.13;2.53;;;;;;;;;;5004681;28;20041;-65
2022/08/30 03:13:07;;;;;;;9.77;2.80;;;;;;;;;;5018188;28;20042;-66
2022/08/30 03:15:34;;;;;;;11.65;3.03;;;;;;;;;;5012307;28;20408;-64
2022/08/30 03:18:01;;;;;;;10.52;2.83;;;;;;;;;;5004341;28;20506;-65
2022/08/30 03:20:27;;;;;;;13.10;3.03;;;;;;;;;;5001014;28;20042;-64
2022/08/30 03:22:53;;;;;;;5.50;2.80;;;;;;;;;;5001894;28;20054;-65
2022/08/30 03:25:20;;;;;;;8.13;2.70;;;;;;;;;;5003161;28;20052;-64
2022/08/30 03:27:46;;;;;;;9.40;2.47;;;;;;;;;;5006189;28;20162;-64
2022/08/30 03:30:13;;;;;;;7.82;2.70;;;;;;;;;;4994293;28;20144;-63
2022/08/30 03:32:40;;;;;;;4.93;2.70;;;;;;;;;;5010380;28;20053;-61
2022/08/30 03:35:07;;;;;;;7.78;2.65;;;;;;;;;;5009463;28;20147;-64
2022/08/30 03:37:34;;;;;;;8.43;2.40;;;;;;;;;;5001131;28;20042;-65
2022/08/30 03:40:00;;;;;;;8.73;2.78;;;;;;;;;;5000474;28;20049;-65
2022/08/30 03:42:26;;;;;;;8.23;2.63;;;;;;;;;;5004411;28;20046;-63
2022/08/30 03:44:52;;;;;;;10.98;2.70;;;;;;;;;;5007282;28;20107;-63
2022/08/30 03:47:19;;;;;;;7.72;2.83;;;;;;;;;;5005998;28;20124;-66
2022/08/30 03:49:45;;;;;;;6.30;2.42;;;;;;;;;;5008886;28;20042;-63
2022/08/30 03:52:11;;;;;;;10.38;3.15;;;;;;;;;;5008221;28;20065;-65
2022/08/30 03:54:38;;;;;;;9.35;2.80;;;;;;;;;;5005708;28;20077;-64
2022/08/30 03:57:05;;;;;;;7.28;2.80;;;;;;;;;;5005323;28;20500;-63
2022/08/30 03:59:31;;;;;;;12.40;3.25;;;;;;;;;;5006508;28;20620;-64
2022/08/30 04:01:57;;;;;;;6.97;3.03;;;;;;;;;;4983346;28;20038;-66
2022/08/30 04:04:24;;;;;;;9.98;2.85;;;;;;;;;;5008431;28;20076;-64
2022/08/30 04:06:50;;;;;;;8.98;2.90;;;;;;;;;;5012282;28;20064;-63
2022/08/30 04:09:17;;;;;;;6.45;3.00;;;;;;;;;;5009779;28;20049;-63
2022/08/30 04:11:43;;;;;;;9.68;3.17;;;;;;;;;;5003529;28;20751;-65
2022/08/30 04:14:10;;;;;;;9.27;3.35;;;;;;;;;;5008298;28;20126;-68
2022/08/30 04:16:35;;;;;;;8.38;3.33;;;;;;;;;;4990609;28;20061;-65
2022/08/30 04:19:01;;;;;;;7.00;3.25;;;;;;;;;;5005525;28;20042;-62
2022/08/30 04:21:27;;;;;;;9.07;3.33;;;;;;;;;;5002618;28;20136;-64
2022/08/30 04:23:53;;;;;;;5.90;3.08;;;;;;;;;;5005931;28;20125;-63
2022/08/30 04:26:19;;;;;;;7.35;3.22;;;;;;;;;;5003403;28;20472;-64
2022/08/30 04:28:45;;;;;;;10.38;3.70;;;;;;;;;;5002902;28;20081;-63
2022/08/30 04:31:14;;;;;;;7.97;3.60;;;;;;;;;;4998615;28;20462;-62
2022/08/30 04:33:40;;;;;;;6.53;3.15;;;;;;;;;;5004346;28;20886;-63
2022/08/30 04:36:08;;;;;;;9.27;3.63;;;;;;;;;;5007384;28;20049;-63
2022/08/30 04:38:36;;;;;;;7.20;3.42;;;;;;;;;;5001308;28;20486;-68
2022/08/30 04:41:07;;;;;;;9.25;3.67;;;;;;;;;;5007127;28;20118;-62
2022/08/30 04:43:33;;;;;;;8.18;3.33;;;;;;;;;;4985821;28;20049;-61
2022/08/30 04:45:59;;;;;;;6.03;2.88;;;;;;;;;;4998196;28;20046;-63
2022/08/30 04:48:24;;;;;;;6.20;3.55;;;;;;;;;;4995912;28;20077;-61
2022/08/30 04:50:51;;;;;;;10.15;3.60;;;;;;;;;;5002150;28;20054;-62
2022/08/30 04:53:16;;;;;;;9.10;3.58;;;;;;;;;;5008499;28;20133;-65
2022/08/30 04:55:42;;;;;;;8.90;3.08;;;;;;;;;;5006624;28;20483;-64
2022/08/30 04:58:10;;;;;;;17.63;7.78;;;;;;;;;;5004390;28;20142;-63
2022/08/30 05:00:36;;;;;;;16.45;6.20;;;;;;;;;;5004530;28;20056;-63
2022/08/30 05:03:03;;;;;;;11.95;4.18;;;;;;;;;;5002064;28;20085;-63
2022/08/30 05:05:38;;;;;;;11.10;4.15;;;;;;;;;;5002965;28;20609;-62
2022/08/30 05:08:06;;;;;;;12.25;3.63;;;;;;;;;;5003284;28;20161;-66
2022/08/30 05:10:33;;;;;;;10.02;3.58;;;;;;;;;;5002545;28;20466;-64
2022/08/30 05:12:59;;;;;;;8.50;3.63;;;;;;;;;;5005676;28;20046;-64
2022/08/30 05:15:25;;;;;;;13.23;3.85;;;;;;;;;;5005108;28;20050;-64
2022/08/30 05:17:50;;;;;;;10.13;3.47;;;;;;;;;;5002950;28;20142;-64
2022/08/30 05:20:17;;;;;;;7.55;3.60;;;;;;;;;;5007632;28;20064;-62
2022/08/30 05:22:49;;;;;;;9.52;3.83;;;;;;;;;;5006486;28;20038;-65
2022/08/30 05:25:22;;;;;;;9.57;4.30;;;;;;;;;;5002518;28;20080;-64
2022/08/30 05:27:48;;;;;;;10.10;3.72;;;;;;;;;;5003824;28;20069;-62
2022/08/30 05:30:15;;;;;;;6.82;3.55;;;;;;;;;;5004615;28;20500;-63
2022/08/30 05:32:42;;;;;;;8.52;3.72;;;;;;;;;;4985456;28;20054;-62
2022/08/30 05:35:10;;;;;;;7.43;3.70;;;;;;;;;;5004814;28;20091;-62
2022/08/30 05:37:36;;;;;;;7.93;3.20;;;;;;;;;;5005084;28;20084;-63
2022/08/30 05:40:04;;;;;;;9.65;3.53;;;;;;;;;;5001758;28;20081;-66
2022/08/30 05:42:30;;;;;;;6.68;3.33;;;;;;;;;;5005900;28;20042;-64
2022/08/30 05:44:56;;;;;;;8.02;3.30;;;;;;;;;;5006097;28;20559;-66
2022/08/30 05:47:22;;;;;;;8.98;2.88;;;;;;;;;;5003670;28;20085;-62
2022/08/30 05:49:48;;;;;;;7.53;2.78;;;;;;;;;;5001502;28;20128;-61
2022/08/30 05:52:16;;;;;;;8.25;3.08;;;;;;;;;;5004040;28;20042;-62
2022/08/30 05:54:44;;;;;;;10.07;3.35;;;;;;;;;;5007556;28;20125;-64
2022/08/30 05:57:10;;;;;;;5.50;2.78;;;;;;;;;;5007122;28;20050;-63
2022/08/30 05:59:35;;;;;;;8.88;3.25;;;;;;;;;;5003072;28;20103;-63
2022/08/30 06:02:02;;;;;;;6.35;3.05;;;;;;;;;;5003052;28;20062;-63
2022/08/30 06:04:28;;;;;;;11.68;2.97;;;;;;;;;;4999883;28;20128;-63
2022/08/30 06:06:54;;;;;;;11.48;3.40;;;;;;;;;;5000320;28;20127;-64
2022/08/30 06:09:20;;;;;;;11.65;3.20;;;;;;;;;;4983883;28;20053;-63
2022/08/30 06:11:46;;;;;;;7.25;3.03;;;;;;;;;;5001596;28;20144;-63
2022/08/30 06:14:13;;;;;;;7.68;2.50;;;;;;;;;;5001036;28;20049;-62
2022/08/30 06:16:39;;;;;;;9.25;2.90;;;;;;;;;;5003856;28;20527;-64
2022/08/30 06:19:07;;;;;;;14.68;3.15;;;;;;;;;;5002291;28;20060;-64
2022/08/30 06:21:35;;;;;;;8.15;3.00;;;;;;;;;;5003076;28;20454;-63
2022/08/30 06:24:03;;;;;;;11.27;2.90;;;;;;;;;;5006053;28;20467;-64
2022/08/30 06:26:30;;;;;;;10.85;3.10;;;;;;;;;;4985706;28;20507;-64
2022/08/30 06:28:56;;;;;;;8.23;3.10;;;;;;;;;;5001159;28;20050;-65
2022/08/30 06:31:24;;;;;;;11.07;3.22;;;;;;;;;;5000528;28;20058;-63
2022/08/30 06:33:51;;;;;;;9.05;2.92;;;;;;;;;;4998010;28;20046;-65
2022/08/30 06:36:22;;;;;;;10.23;3.03;;;;;;;;;;5001489;28;20054;-63
2022/08/30 06:38:53;;;;;;;13.68;3.42;;;;;;;;;;5005304;28;20057;-65
2022/08/30 06:41:23;;;;;;;11.35;3.10;;;;;;;;;;4999658;28;20062;-63
2022/08/30 06:43:50;;;;;;;11.45;3.20;;;;;;;;;;4986060;28;20488;-65
2022/08/30 06:46:26;;;;;;;9.68;3.30;;;;;;;;;;5005535;28;20488;-62
2022/08/30 06:48:53;;;;;;;11.02;3.47;;;;;;;;;;4999905;28;20054;-63
2022/08/30 06:51:26;;;;;;;8.90;3.17;;;;;;;;;;4998356;28;20065;-64
2022/08/30 06:53:52;;;;;;;10.57;3.30;;;;;;;;;;4997846;28;20046;-65
2022/08/30 06:56:19;;;;;;;9.05;2.97;;;;;;;;;;4986848;28;20519;-64
2022/08/30 06:58:47;;;;;;;11.23;3.17;;;;;;;;;;5000101;28;20050;-66
2022/08/30 07:01:15;;;;;;;9.13;3.55;;;;;;;;;;5004175;28;20053;-65
2022/08/30 07:03:42;;;;;;;9.73;3.72;;;;;;;;;;4999873;28;20054;-64
2022/08/30 07:06:08;;;;;;;9.77;3.35;;;;;;;;;;5002725;28;20053;-67
2022/08/30 07:08:35;;;;;;;12.90;3.33;;;;;;;;;;5001192;28;20057;-67
2022/08/30 07:11:02;;;;;;;9.10;3.47;;;;;;;;;;4998044;28;20144;-65
2022/08/30 07:13:29;;;;;;;7.93;2.95;;;;;;;;;;4994306;28;20429;-66
2022/08/30 07:15:55;;;;;;;13.35;3.70;;;;;;;;;;5002967;28;20049;-68
2022/08/30 07:21:11;;;;;;;8.90;3.60;;;;;;;;;;5002912;28;20045;-62
2022/08/30 07:23:41;;;;;;;12.75;3.53;;;;;;;;;;5011421;28;20092;-63
2022/08/30 07:26:09;;;;;;;12.93;3.40;;;;;;;;;;5007901;28;20049;-65
2022/08/30 07:28:40;;;;;;;9.93;3.22;;;;;;;;;;5005187;28;20085;-65
2022/08/30 07:31:07;;;;;;;13.27;3.53;;;;;;;;;;4997345;28;20061;-66
2022/08/30 07:33:33;;;;;;;10.70;3.50;;;;;;;;;;5002577;28;20487;-63
2022/08/30 07:35:59;;;;;;;12.82;3.58;;;;;;;;;;4997890;28;20050;-66
2022/08/30 07:38:26;;;;;;;10.77;3.40;;;;;;;;;;5005068;28;20077;-66
2022/08/30 07:40:53;;;;;;;9.45;3.28;;;;;;;;;;5012082;28;20069;-65
2022/08/30 07:43:18;;;;;;;11.63;3.22;;;;;;;;;;5005443;28;20475;-65
2022/08/30 07:45:45;;;;;;;12.48;3.25;;;;;;;;;;5004878;28;20145;-64
2022/08/30 07:48:11;;;;;;;10.70;3.28;;;;;;;;;;5003080;28;20054;-64
2022/08/30 07:50:43;;;;;;;10.88;3.15;;;;;;;;;;5003394;28;20364;-63
2022/08/30 07:53:09;;;;;;;10.27;3.40;;;;;;;;;;4999911;28;20066;-65
2022/08/30 07:55:35;;;;;;;7.47;3.15;;;;;;;;;;5001819;28;20086;-63
2022/08/30 07:58:01;;;;;;;13.52;3.42;;;;;;;;;;5006224;28;20436;-64
2022/08/30 08:00:27;;;;;;;11.00;3.50;;;;;;;;;;5005127;28;20570;-66
2022/08/30 08:02:53;;;;;;;10.00;3.20;;;;;;;;;;5009086;28;20133;-64
2022/08/30 08:05:19;;;;;;;15.75;3.22;;;;;;;;;;5008641;28;20038;-66
2022/08/30 08:07:45;;;;;;;12.70;3.55;;;;;;;;;;5008999;28;20057;-65
2022/08/30 08:10:12;;;;;;;15.07;3.40;;;;;;;;;;5004906;28;20042;-65
2022/08/30 08:12:39;;;;;;;10.13;2.80;;;;;;;;;;4990834;28;20046;-69
2022/08/30 08:15:06;;;;;;;10.18;3.35;;;;;;;;;;5004016;28;20068;-68
2022/08/30 08:17:31;;;;;;;15.65;2.90;;;;;;;;;;5002377;28;20045;-67
2022/08/30 08:19:58;;;;;;;10.32;3.00;;;;;;;;;;4998872;28;20065;-65
2022/08/30 08:22:24;;;;;;;11.55;2.92;;;;;;;;;;5005620;28;20054;-66
2022/08/30 08:24:50;;;;;;;12.48;3.05;;;;;;;;;;4978771;28;20514;-69
2022/08/30 08:27:16;;;;;;;11.85;2.95;;;;;;;;;;5005907;28;20049;-67
2022/08/30 08:29:43;;;;;;;9.25;3.00;;;;;;;;;;5001455;28;20057;-66
2022/08/30 08:32:09;;;;;;;13.77;3.35;;;;;;;;;;4973294;28;20058;-67
2022/08/30 08:34:36;;;;;;;11.93;2.95;;;;;;;;;;4984620;28;20629;-69
2022/08/30 08:37:02;;;;;;;9.20;2.65;;;;;;;;;;4986463;28;20129;-67
2022/08/30 08:39:28;;;;;;;9.20;2.90;;;;;;;;;;4988460;28;20395;-68
2022/08/30 08:42:05;;;;;;;11.38;2.80;;;;;;;;;;4987077;28;20042;-68
2022/08/30 08:45:01;;;;;;;9.30;2.97;;;;;;;;;;4987565;28;20121;-71
2022/08/30 08:47:59;;;;;;;15.77;2.90;;;;;;;;;;4979285;28;20055;-66
2022/08/30 08:50:26;;;;;;;7.50;2.35;;;;;;;;;;4979410;28;20524;-67
2022/08/30 08:55:57;;;;;;;;;;;;;;;;;;4985002;28;20110;-67
2022/08/30 08:58:29;;;;;;;11.63;3.30;;;;;;;;;;4983847;28;19933;-66
2022/08/30 09:00:57;;;;;;;8.00;2.85;;;;;;;;;;4975062;28;20508;-68
2022/08/30 09:03:26;;;;;;;13.73;3.30;;;;;;;;;;4986017;28;20042;-67
2022/08/30 09:05:53;;;;;;;11.70;3.50;;;;;;;;;;4980271;28;20165;-68
2022/08/30 09:08:20;;;;;;;10.60;2.97;;;;;;;;;;4985675;28;20160;-66
2022/08/30 09:11:15;;;;;;;11.07;2.97;;;;;;;;;;4978234;28;20166;-68
2022/08/30 09:13:41;;;;;;;;;;;;;;;;;;4986143;28;20035;-69
2022/08/30 09:16:07;;;;;;;11.32;3.10;;;;;;;;;;4984639;28;19937;-68
2022/08/30 09:18:43;;;;;;;17.27;3.67;;;;;;;;;;4987613;28;20057;-68
2022/08/30 09:21:10;;;;;;;16.23;3.47;;;;;;;;;;4983082;28;20523;-70
2022/08/30 09:23:36;;;;;;;9.65;3.33;;;;;;;;;;4981217;28;20054;-70
2022/08/30 09:26:08;;;;;;;9.98;3.30;;;;;;;;;;4982250;28;20579;-68
2022/08/30 09:28:45;;;;;;;15.95;3.85;;;;;;;;;;4983008;28;20420;-68
2022/08/30 09:31:23;;;;;;;16.27;3.75;;;;;;;;;;4990905;28;20488;-67
2022/08/30 09:34:04;;;;;;;11.40;3.60;;;;;;;;;;5004920;28;20077;-73
2022/08/30 09:36:42;;;;;;;17.17;4.28;;;;;;;;;;5003977;28;20554;-67
2022/08/30 09:39:25;;;;;;;15.10;3.25;;;;;;;;;;5013824;28;20080;-67
2022/08/30 09:41:51;;;;;;;14.93;4.55;;;;;;;;;;5006222;28;20045;-75
2022/08/30 09:44:23;;;;;;;13.57;3.67;;;;;;;;;;5005386;28;20073;-71
2022/08/30 09:46:56;;;;;;;15.00;3.70;;;;;;;;;;5008794;28;20046;-71
2022/08/30 09:49:43;;;;;;;15.60;3.90;;;;;;;;;;5005047;28;20077;-67
2022/08/30 09:52:15;;;;;;;21.60;3.97;;;;;;;;;;5011104;28;20037;-67
2022/08/30 09:55:09;;;;;;;10.75;3.20;;;;;;;;;;5008907;28;20050;-67
2022/08/30 09:57:55;;;;;;;11.75;3.50;;;;;;;;;;5001380;28;20053;-67
2022/08/30 10:00:27;;;;;;;13.05;3.50;;;;;;;;;;4991123;28;20416;-68
2022/08/30 10:03:17;;;;;;;14.13;3.60;;;;;;;;;;5004211;28;20141;-67
2022/08/30 10:06:00;;;;;;;17.17;3.85;;;;;;;;;;5005868;28;20038;-65
2022/08/30 10:09:03;;;;;;;13.90;3.38;;;;;;;;;;5009165;28;20045;-66
2022/08/30 10:11:55;;;;;;;9.15;3.47;;;;;;;;;;5008180;28;20046;-68
2022/08/30 10:14:42;;;;;;;13.68;3.45;;;;;;;;;;5002001;28;20234;-66
2022/08/30 10:17:19;;;;;;;8.15;3.20;;;;;;;;;;5008071;28;20080;-67
2022/08/30 10:19:57;;;;;;;7.97;3.00;;;;;;;;;;5010615;28;20133;-68
2022/08/30 10:22:30;;;;;;;9.50;3.13;;;;;;;;;;4993398;28;20064;-68
2022/08/30 10:25:05;;;;;;;11.15;3.42;;;;;;;;;;5005329;28;20492;-75
2022/08/30 10:27:40;;;;;;;14.27;3.42;;;;;;;;;;5004245;28;20126;-73
2022/08/30 10:30:10;;;;;;;12.02;3.53;;;;;;;;;;5006697;28;20132;-73
2022/08/30 10:32:47;;;;;;;16.52;3.55;;;;;;;;;;5008542;28;20173;-72
2022/08/30 10:35:22;;;;;;;9.25;3.42;;;;;;;;;;5002056;28;20123;-73
2022/08/30 10:37:57;;;;;;;14.82;3.35;;;;;;;;;;5005898;28;20084;-74
2022/08/30 10:43:24;;;;;;;11.80;3.45;;;;;;;;;;5008194;28;20104;-74
2022/08/30 10:45:54;;;;;;;10.98;3.15;;;;;;;;;;5003349;28;20043;-74
2022/08/30 10:48:28;;;;;;;10.82;3.90;;;;;;;;;;4989375;28;20058;-74
2022/08/30 10:51:00;;;;;;;11.25;3.33;;;;;;;;;;5004277;28;20069;-74
2022/08/30 10:54:03;;;;;;;18.52;3.75;;;;;;;;;;5001626;28;20119;-73
2022/08/30 10:56:30;;;;;;;9.18;3.03;;;;;;;;;;5008357;28;20053;-75
2022/08/30 10:58:58;;;;;;;12.48;3.35;;;;;;;;;;5008053;28;20041;-73
2022/08/30 11:01:36;;;;;;;16.85;3.80;;;;;;;;;;5000965;28;20057;-74
2022/08/30 11:04:23;;;;;;;11.82;3.60;;;;;;;;;;5007884;28;20555;-76
2022/08/30 11:07:08;;;;;;;12.68;3.10;;;;;;;;;;5010874;28;20478;-75
2022/08/30 11:09:52;;;;;;;12.63;3.38;;;;;;;;;;4999310;28;20066;-73
2022/08/30 11:12:21;;;;;;;;;;;;;;;;;;5006444;28;20050;-74
2022/08/30 11:14:47;;;;;;;13.35;4.85;;;;;;;;;;5008062;28;19921;-72
2022/08/30 11:17:25;;;;;;;15.32;4.75;;;;;;;;;;5006797;28;20109;-75
2022/08/30 11:19:53;;;;;;;14.40;4.20;;;;;;;;;;5007302;28;20046;-74
2022/08/30 11:22:32;;;;;;;12.80;3.58;;;;;;;;;;5009419;28;20357;-74
2022/08/30 11:25:14;;;;;;;13.02;3.70;;;;;;;;;;5002771;28;20046;-74
2022/08/30 11:27:51;;;;;;;9.45;3.15;;;;;;;;;;5006691;28;20058;-74
2022/08/30 11:30:23;;;;;;;11.73;3.38;;;;;;;;;;5006712;28;20085;-72
2022/08/30 11:33:23;;;;;;;14.38;3.83;;;;;;;;;;5003904;28;20042;-74
2022/08/30 11:35:53;;;;;;;10.30;2.90;;;;;;;;;;4998110;28;20054;-73
2022/08/30 11:38:26;;;;;;;11.25;3.15;;;;;;;;;;4984339;28;20089;-76
2022/08/30 11:40:55;;;;;;;9.60;3.10;;;;;;;;;;5008507;28;20602;-72
2022/08/30 11:43:32;;;;;;;14.13;3.20;;;;;;;;;;5003794;28;20093;-73
2022/08/30 11:46:25;;;;;;;7.65;2.42;;;;;;;;;;5006864;28;20125;-73
2022/08/30 11:49:09;;;;;;;10.93;3.03;;;;;;;;;;5007359;28;20053;-74
2022/08/30 11:51:53;;;;;;;12.75;2.97;;;;;;;;;;5002272;28;20042;-73
2022/08/30 11:54:54;;;;;;;11.77;3.08;;;;;;;;;;4998664;28;20060;-74
2022/08/30 11:57:35;;;;;;;11.25;2.88;;;;;;;;;;4982067;28;20068;-74
2022/08/30 12:00:30;;;;;;;11.55;3.10;;;;;;;;;;5008268;28;20049;-73
2022/08/30 12:02:56;;;;;;;10.45;2.75;;;;;;;;;;4999611;28;20379;-73
2022/08/30 12:05:39;;;;;;;9.57;2.85;;;;;;;;;;5007172;28;20050;-71
2022/08/30 12:08:10;;;;;;;9.32;2.83;;;;;;;;;;4989334;28;20378;-72
2022/08/30 12:10:45;;;;;;;7.53;2.38;;;;;;;;;;5000540;28;20100;-71
2022/08/30 12:13:33;;;;;;;14.13;2.95;;;;;;;;;;5007430;28;20073;-77
2022/08/30 12:16:02;;;;;;;11.75;3.10;;;;;;;;;;5000637;28;20215;-70
2022/08/30 12:18:42;;;;;;;13.77;3.05;;;;;;;;;;4996322;28;20112;-71
2022/08/30 12:21:17;;;;;;;10.52;2.72;;;;;;;;;;5010633;28;20129;-70
2022/08/30 12:23:52;;;;;;;10.88;2.80;;;;;;;;;;4987910;28;20172;-70
2022/08/30 12:26:34;;;;;;;10.88;2.40;;;;;;;;;;5007236;28;20110;-74
2022/08/30 12:29:26;;;;;;;12.20;2.80;;;;;;;;;;5009338;28;20096;-73
2022/08/30 12:32:13;;;;;;;13.65;2.85;;;;;;;;;;4986583;28;20109;-73
2022/08/30 12:34:39;;;;;;;9.93;3.22;;;;;;;;;;5007015;28;20662;-74
2022/08/30 12:37:26;;;;;;;11.20;2.90;;;;;;;;;;5004203;28;20049;-77
2022/08/30 12:40:07;;;;;;;8.93;3.05;;;;;;;;;;5005984;28;20152;-73
2022/08/30 12:42:36;;;;;;;14.30;3.50;;;;;;;;;;5000190;28;20484;-74
2022/08/30 12:45:14;;;;;;;10.75;3.20;;;;;;;;;;4990827;28;20125;-77
2022/08/30 12:47:49;;;;;;;12.93;3.47;;;;;;;;;;5009486;28;20472;-75
2022/08/30 12:50:19;;;;;;;11.35;3.35;;;;;;;;;;5010456;28;20050;-74
2022/08/30 12:52:54;;;;;;;14.05;3.72;;;;;;;;;;5009203;28;20089;-77
2022/08/30 12:55:29;;;;;;;13.25;3.00;;;;;;;;;;5007978;28;20145;-75
2022/08/30 12:58:08;;;;;;;9.90;3.20;;;;;;;;;;5010022;28;20447;-74
2022/08/30 13:00:39;;;;;;;16.10;3.97;;;;;;;;;;5002317;28;20054;-76
2022/08/30 13:03:27;;;;;;;10.25;3.05;;;;;;;;;;5009563;28;20052;-74
2022/08/30 13:05:54;;;;;;;9.30;2.75;;;;;;;;;;5008410;28;20127;-71
2022/08/30 13:08:26;;;;;;;17.33;3.38;;;;;;;;;;5008875;28;20062;-72
2022/08/30 13:11:29;;;;;;;8.77;2.78;;;;;;;;;;5002553;28;20052;-73
2022/08/30 13:14:34;;;;;;;10.98;3.17;;;;;;;;;;4982628;28;20053;-73
2022/08/30 13:17:27;;;;;;;9.32;2.80;;;;;;;;;;5010354;28;20053;-72
2022/08/30 13:20:00;;;;;;;9.75;3.08;;;;;;;;;;4999696;28;20039;-72
2022/08/30 13:22:30;;;;;;;12.00;2.90;;;;;;;;;;5008930;28;20115;-69
2022/08/30 13:24:57;;;;;;;8.90;3.47;;;;;;;;;;5009084;28;20064;-68
2022/08/30 13:27:24;;;;;;;12.07;3.42;;;;;;;;;;5011654;28;20046;-67
2022/08/30 13:29:50;;;;;;;12.52;3.33;;;;;;;;;;5012503;28;20049;-71
2022/08/30 13:32:16;;;;;;;11.70;3.03;;;;;;;;;;5010199;28;20070;-73
2022/08/30 13:34:43;;;;;;;8.98;3.00;;;;;;;;;;5010446;28;20053;-72
2022/08/30 13:37:17;;;;;;;8.77;2.95;;;;;;;;;;4998584;28;20049;-73
2022/08/30 13:39:43;;;;;;;10.40;3.15;;;;;;;;;;5003837;28;20050;-74
2022/08/30 13:42:09;;;;;;;9.32;3.20;;;;;;;;;;5002229;28;20101;-73
2022/08/30 13:44:35;;;;;;;12.65;3.22;;;;;;;;;;5008883;28;20049;-73
2022/08/30 13:47:03;;;;;;;10.02;3.30;;;;;;;;;;4992860;28;20060;-74
2022/08/30 13:49:34;;;;;;;11.77;3.53;;;;;;;;;;5000791;28;20113;-72
2022/08/30 13:52:01;;;;;;;10.30;3.28;;;;;;;;;;4997352;28;20353;-73
2022/08/30 13:54:27;;;;;;;8.00;3.25;;;;;;;;;;5009221;28;20049;-73
2022/08/30 13:56:54;;;;;;;10.70;3.22;;;;;;;;;;5003428;28;20076;-74
2022/08/30 13:59:21;;;;;;;13.63;3.20;;;;;;;;;;5006797;28;20049;-71
2022/08/30 14:01:48;;;;;;;9.95;2.92;;;;;;;;;;5007320;28;20427;-73
2022/08/30 14:04:14;;;;;;;8.80;3.10;;;;;;;;;;5011969;28;20050;-73
2022/08/30 14:06:41;;;;;;;11.13;2.85;;;;;;;;;;5001028;28;20416;-72
2022/08/30 14:09:09;;;;;;;10.00;2.80;;;;;;;;;;5008726;28;20125;-73
2022/08/30 14:11:35;;;;;;;12.65;2.80;;;;;;;;;;5005733;28;20041;-74
2022/08/30 14:14:01;;;;;;;7.28;2.60;;;;;;;;;;5000041;28;20461;-72
2022/08/30 14:16:27;;;;;;;15.75;2.95;;;;;;;;;;5006712;28;20057;-73
2022/08/30 14:18:54;;;;;;;10.07;2.70;;;;;;;;;;5005599;28;20042;-72
2022/08/30 14:21:20;;;;;;;14.88;3.00;;;;;;;;;;5009731;28;20070;-73
2022/08/30 14:23:46;;;;;;;12.02;2.60;;;;;;;;;;5002277;28;20124;-73
2022/08/30 14:26:35;;;;;;;11.88;2.78;;;;;;;;;;5003774;28;20066;-74
2022/08/30 14:29:05;;;;;;;13.43;3.17;;;;;;;;;;4998133;28;20152;-74
2022/08/30 14:31:31;;;;;;;7.32;2.38;;;;;;;;;;5005569;28;20053;-71
2022/08/30 14:33:57;;;;;;;8.40;2.83;;;;;;;;;;5005802;28;20164;-73
2022/08/30 14:36:23;;;;;;;14.88;2.92;;;;;;;;;;5008461;28;20050;-73
2022/08/30 14:38:48;;;;;;;11.60;2.63;;;;;;;;;;5005535;28;20137;-72
2022/08/30 14:41:14;;;;;;;11.25;3.03;;;;;;;;;;4999740;28;20054;-72
2022/08/30 14:43:40;;;;;;;13.13;2.80;;;;;;;;;;5000806;28;20081;-74
2022/08/30 14:46:08;;;;;;;11.45;3.50;;;;;;;;;;5011227;28;20046;-74
2022/08/30 14:48:35;;;;;;;12.18;3.08;;;;;;;;;;5004528;28;20113;-72
2022/08/30 14:51:02;;;;;;;12.27;3.00;;;;;;;;;;5007137;28;20041;-73
2022/08/30 14:53:27;;;;;;;12.60;2.72;;;;;;;;;;4990411;28;20053;-72
2022/08/30 14:55:53;;;;;;;9.07;2.83;;;;;;;;;;5006495;28;20046;-75
2022/08/30 14:58:19;;;;;;;11.73;3.13;;;;;;;;;;4995566;28;20074;-73
2022/08/30 15:00:49;;;;;;;10.80;3.35;;;;;;;;;;5004132;28;20112;-73
2022/08/30 15:03:15;;;;;;;14.25;3.47;;;;;;;;;;5008388;28;20061;-73